Time;durP1;ratioP1;P1;durP2;ratioP2;P2;SDS_P1;SDS_P2;PMS_P1;PMS_P2;Temp;Humidity;BMP_temperature;BMP_pressure;BME280_temperature;BME280_humidity;BME280_pressure;Samples;Min_cycle;Max_cycle;Signal;HPM_P1;HPM_P2
2023/05/29 00:00:54;;;;;;;0.60;0.60;;;;;;;19.13;100.00;99899.50;5051324;28;20195;-72
2023/05/29 00:03:21;;;;;;;0.50;0.50;;;;;;;19.49;100.00;99954.78;5016939;28;20223;-72
2023/05/29 00:05:49;;;;;;;0.60;0.60;;;;;;;19.27;100.00;99923.69;5049811;28;20743;-72
2023/05/29 00:08:16;;;;;;;0.50;0.50;;;;;;;19.29;100.00;99918.41;5051579;28;20203;-72
2023/05/29 00:10:43;;;;;;;0.50;0.50;;;;;;;19.33;100.00;99950.75;5051106;28;20642;-72
2023/05/29 00:13:11;;;;;;;0.50;0.50;;;;;;;19.52;100.00;99962.59;5050899;28;20646;-72
2023/05/29 00:15:38;;;;;;;0.60;0.60;;;;;;;19.40;100.00;99955.84;5031990;28;20811;-72
2023/05/29 00:18:05;;;;;;;0.50;0.50;;;;;;;19.18;100.00;99928.31;5041336;28;20265;-72
2023/05/29 00:20:33;;;;;;;0.60;0.60;;;;;;;19.33;100.00;99951.63;5045899;28;20211;-72
2023/05/29 00:23:01;;;;;;;0.52;0.52;;;;;;;19.11;100.00;99935.47;5050688;28;20664;-72
2023/05/29 00:25:28;;;;;;;0.50;0.50;;;;;;;19.10;100.00;99952.13;5031629;28;20656;-72
2023/05/29 00:27:55;;;;;;;0.50;0.50;;;;;;;19.03;100.00;99965.44;5045020;28;20206;-72
2023/05/29 00:30:23;;;;;;;0.50;0.50;;;;;;;18.72;100.00;99905.66;5050701;28;20200;-72
2023/05/29 00:32:51;;;;;;;0.60;0.60;;;;;;;18.96;100.00;99946.31;5051374;28;20203;-72
2023/05/29 00:35:18;;;;;;;0.60;0.60;;;;;;;19.03;100.00;99958.41;5050699;28;20222;-72
2023/05/29 00:37:45;;;;;;;0.60;0.60;;;;;;;19.00;100.00;99937.47;5029109;28;20621;-72
2023/05/29 00:40:12;;;;;;;0.50;0.50;;;;;;;19.04;100.00;99952.28;5009767;28;20254;-72
2023/05/29 00:42:39;;;;;;;0.60;0.60;;;;;;;19.01;100.00;99944.47;5013703;28;20317;-72
2023/05/29 00:45:07;;;;;;;0.60;0.60;;;;;;;18.86;100.00;99928.13;5051060;28;20204;-71
2023/05/29 00:47:36;;;;;;;0.60;0.60;;;;;;;18.96;100.00;99953.31;4996367;28;20206;-71
2023/05/29 00:50:04;;;;;;;0.50;0.50;;;;;;;18.32;100.00;99846.94;5050989;28;20656;-72
2023/05/29 00:52:31;;;;;;;0.60;0.60;;;;;;;18.72;100.00;99910.03;5050814;28;20215;-72
2023/05/29 00:55:00;;;;;;;0.50;0.50;;;;;;;18.90;100.00;99954.31;5050722;28;20638;-71
2023/05/29 00:57:27;;;;;;;0.50;0.50;;;;;;;18.86;100.00;99952.66;5050948;28;20598;-72
2023/05/29 00:59:56;;;;;;;0.70;0.70;;;;;;;18.89;100.00;99936.81;5050088;28;20644;-72
2023/05/29 01:02:23;;;;;;;0.60;0.60;;;;;;;18.91;100.00;99928.88;5049942;28;20210;-72
2023/05/29 01:04:54;;;;;;;0.68;0.68;;;;;;;18.91;100.00;99910.50;5050979;28;20203;-72
2023/05/29 01:07:21;;;;;;;0.60;0.60;;;;;;;18.67;100.00;99873.38;5050978;28;20203;-72
2023/05/29 01:09:48;;;;;;;0.60;0.60;;;;;;;19.10;100.00;99938.97;5012075;28;20199;-72
2023/05/29 01:12:29;;;;;;;0.50;0.50;;;;;;;19.23;100.00;99943.06;5047456;28;20195;-71
2023/05/29 01:15:13;;;;;;;0.50;0.50;;;;;;;19.27;100.00;99949.13;5014166;28;20200;-71
2023/05/29 01:17:51;;;;;;;0.60;0.60;;;;;;;19.17;100.00;99924.81;5050725;28;20195;-71
2023/05/29 01:20:30;;;;;;;0.52;0.52;;;;;;;19.11;100.00;99924.97;5040019;28;20200;-72
2023/05/29 01:23:12;;;;;;;0.60;0.60;;;;;;;19.14;100.00;99939.78;5050719;28;20230;-72
2023/05/29 01:25:59;;;;;;;0.80;0.80;;;;;;;19.21;100.00;99942.25;5049938;28;20211;-72
2023/05/29 01:28:33;;;;;;;0.50;0.50;;;;;;;19.26;100.00;99940.34;5050721;28;20600;-72
2023/05/29 01:31:01;;;;;;;0.60;0.60;;;;;;;19.12;100.00;99926.66;5050300;28;20250;-72
2023/05/29 01:33:28;;;;;;;0.50;0.50;;;;;;;19.19;100.00;99932.69;5048355;28;20239;-72
2023/05/29 01:35:58;;;;;;;0.60;0.60;;;;;;;19.23;100.00;99932.53;5050592;28;20630;-71
2023/05/29 01:38:25;;;;;;;0.70;0.70;;;;;;;19.07;100.00;99925.06;5049120;28;20682;-71
2023/05/29 01:40:52;;;;;;;0.50;0.50;;;;;;;18.97;100.00;99927.03;5050507;28;20310;-71
2023/05/29 01:43:19;;;;;;;0.50;0.50;;;;;;;18.77;100.00;99918.69;5014580;28;20220;-71
2023/05/29 01:45:47;;;;;;;0.50;0.50;;;;;;;18.69;100.00;99918.00;5015588;28;20211;-71
2023/05/29 01:48:16;;;;;;;0.60;0.60;;;;;;;18.62;100.00;99924.25;5049304;28;20211;-71
2023/05/29 01:50:44;;;;;;;0.50;0.50;;;;;;;18.18;100.00;99855.09;5017991;28;20203;-71
2023/05/29 01:53:11;;;;;;;0.60;0.60;;;;;;;18.34;100.00;99898.50;5053523;28;20621;-71
2023/05/29 01:55:38;;;;;;;0.50;0.50;;;;;;;18.39;100.00;99901.03;5018062;28;20631;-71
2023/05/29 01:58:06;;;;;;;0.50;0.50;;;;;;;18.46;100.00;99917.53;5035258;28;20210;-72
2023/05/29 02:00:34;;;;;;;0.57;0.57;;;;;;;18.40;100.00;99917.66;5052966;28;20203;-72
2023/05/29 02:03:02;;;;;;;0.52;0.52;;;;;;;18.24;100.00;99896.94;5053964;28;20757;-72
2023/05/29 02:05:29;;;;;;;0.50;0.50;;;;;;;18.17;100.00;99904.97;5018186;28;20231;-71
2023/05/29 02:07:55;;;;;;;0.60;0.60;;;;;;;18.14;100.00;99911.16;5052592;28;20203;-71
2023/05/29 02:10:22;;;;;;;0.60;0.60;;;;;;;18.08;100.00;99916.53;5017993;28;20207;-71
2023/05/29 02:12:49;;;;;;;0.60;0.60;;;;;;;17.99;100.00;99910.53;5018043;28;20203;-72
2023/05/29 02:15:16;;;;;;;0.50;0.50;;;;;;;18.05;100.00;99911.28;5018654;28;20191;-72
2023/05/29 02:17:44;;;;;;;0.60;0.60;;;;;;;17.93;100.00;99894.94;5053767;28;20678;-71
2023/05/29 02:20:12;;;;;;;0.50;0.50;;;;;;;18.08;100.00;99921.75;5033827;28;20208;-71
2023/05/29 02:22:39;;;;;;;0.50;0.50;;;;;;;17.96;100.00;99914.09;5053475;28;20670;-71
2023/05/29 02:25:07;;;;;;;0.60;0.60;;;;;;;18.02;100.00;99913.13;5052605;28;20230;-71
2023/05/29 02:27:33;;;;;;;0.60;0.60;;;;;;;17.99;100.00;99927.16;5052826;28;20203;-71
2023/05/29 02:30:00;;;;;;;0.57;0.57;;;;;;;17.55;100.00;99858.84;5053580;28;20195;-72
2023/05/29 02:32:28;;;;;;;0.60;0.60;;;;;;;17.80;100.00;99913.50;5052204;28;20208;-72
2023/05/29 02:34:55;;;;;;;0.60;0.60;;;;;;;17.78;100.00;99917.03;5014234;28;20229;-75
2023/05/29 02:37:25;;;;;;;0.60;0.60;;;;;;;17.96;100.00;99927.22;5046876;28;20208;-77
2023/05/29 02:39:52;;;;;;;0.60;0.60;;;;;;;17.88;100.00;99910.75;5053030;28;20223;-71
2023/05/29 02:42:18;;;;;;;0.50;0.50;;;;;;;18.02;100.00;99924.47;5053253;28;20192;-71
2023/05/29 02:44:45;;;;;;;0.60;0.60;;;;;;;18.06;100.00;99923.53;5033411;28;20231;-72
2023/05/29 02:47:12;;;;;;;0.60;0.60;;;;;;;18.00;100.00;99922.78;5046500;28;20262;-72
2023/05/29 02:49:39;;;;;;;0.60;0.60;;;;;;;17.77;100.00;99899.56;5053319;28;20269;-72
2023/05/29 02:52:06;;;;;;;0.60;0.60;;;;;;;17.91;100.00;99923.78;5052851;28;20192;-72
2023/05/29 02:54:34;;;;;;;0.50;0.50;;;;;;;17.81;100.00;99903.88;5049675;28;20207;-72
2023/05/29 02:57:02;;;;;;;0.60;0.60;;;;;;;17.96;100.00;99926.34;5050212;28;20704;-71
2023/05/29 02:59:29;;;;;;;0.50;0.50;;;;;;;17.89;100.00;99915.09;5051458;28;20592;-71
2023/05/29 03:01:55;;;;;;;0.60;0.60;;;;;;;17.93;100.00;99932.53;5053633;28;20605;-71
2023/05/29 03:04:22;;;;;;;0.60;0.60;;;;;;;17.92;100.00;99925.53;5050906;28;20230;-73
2023/05/29 03:06:49;;;;;;;0.50;0.50;;;;;;;17.67;100.00;99877.88;5017148;28;20685;-72
2023/05/29 03:09:16;;;;;;;0.70;0.70;;;;;;;17.96;100.00;99932.47;5025749;28;20204;-72
2023/05/29 03:11:44;;;;;;;0.60;0.60;;;;;;;18.15;100.00;99933.00;5027748;28;20238;-72
2023/05/29 03:14:11;;;;;;;0.60;0.60;;;;;;;17.86;100.00;99862.69;5051027;28;20202;-72
2023/05/29 03:16:38;;;;;;;0.50;0.50;;;;;;;18.24;100.00;99928.44;5053183;28;20203;-72
2023/05/29 03:19:05;;;;;;;0.60;0.60;;;;;;;18.00;100.00;99859.81;5053057;28;20206;-71
2023/05/29 03:21:32;;;;;;;0.60;0.60;;;;;;;18.39;100.00;99926.44;5050779;28;20654;-72
2023/05/29 03:23:59;;;;;;;0.57;0.57;;;;;;;18.47;100.00;99916.66;5050945;28;20230;-72
2023/05/29 03:26:26;;;;;;;0.60;0.60;;;;;;;18.89;100.00;99959.59;5051748;28;20196;-72
2023/05/29 03:28:54;;;;;;;0.50;0.50;;;;;;;18.95;100.00;99949.81;5052637;28;20203;-72
2023/05/29 03:31:21;;;;;;;0.70;0.70;;;;;;;19.07;100.00;99965.34;5052710;28;20529;-72
2023/05/29 03:33:49;;;;;;;0.60;0.60;;;;;;;19.16;100.00;99965.13;5050417;28;20203;-72
2023/05/29 03:36:16;;;;;;;0.60;0.60;;;;;;;19.28;100.00;99964.88;5016368;28;20202;-72
2023/05/29 03:38:43;;;;;;;0.60;0.60;;;;;;;19.26;100.00;99950.88;5033887;28;20208;-71
2023/05/29 03:41:10;;;;;;;0.60;0.60;;;;;;;19.49;100.00;99975.81;5052588;28;20199;-71
2023/05/29 03:43:37;;;;;;;0.52;0.52;;;;;;;19.69;100.00;99994.66;5052281;28;20216;-71
2023/05/29 03:46:05;;;;;;;1.30;1.30;;;;;;;19.88;100.00;99993.31;5051826;28;20207;-71
2023/05/29 03:48:32;;;;;;;0.60;0.60;;;;;;;19.87;100.00;99986.31;5012430;28;20208;-70
2023/05/29 03:50:59;;;;;;;0.60;0.60;;;;;;;19.42;100.00;99933.03;5015434;28;20214;-72
2023/05/29 03:53:25;;;;;;;0.50;0.50;;;;;;;19.64;100.00;100000.03;5051960;28;20203;-71
2023/05/29 03:55:52;;;;;;;0.50;0.50;;;;;;;19.54;100.00;99989.75;5051056;28;20203;-73
2023/05/29 03:58:19;;;;;;;0.57;0.57;;;;;;;19.96;100.00;100006.28;5058982;28;20207;-71
2023/05/29 04:00:46;;;;;;;0.82;0.82;;;;;;;20.11;100.00;99998.88;5025548;28;20199;-71
2023/05/29 04:03:14;;;;;;;0.60;0.60;;;;;;;20.38;100.00;100014.91;5058790;28;20200;-71
2023/05/29 04:05:41;;;;;;;0.57;0.57;;;;;;;20.49;100.00;100015.47;5057075;28;20213;-71
2023/05/29 04:08:08;;;;;;;0.57;0.57;;;;;;;20.59;100.00;100009.06;5060684;28;20194;-72
2023/05/29 04:10:36;;;;;;;0.60;0.60;;;;;;;20.79;100.00;100022.59;5060828;28;20206;-70
2023/05/29 04:13:03;;;;;;;0.50;0.50;;;;;;;20.94;100.00;100014.22;5059610;28;20199;-72
2023/05/29 04:15:30;;;;;;;0.50;0.50;;;;;;;21.61;100.00;100046.59;5061819;28;20667;-71
2023/05/29 04:17:57;;;;;;;0.95;0.95;;;;;;;22.34;100.00;100023.09;5057384;28;20195;-71
2023/05/29 04:20:25;;;;;;;0.45;0.45;;;;;;;23.32;100.00;100046.03;5060092;28;20187;-72
2023/05/29 04:22:52;;;;;;;0.75;0.75;;;;;;;23.89;100.00;100050.03;5025832;28;20207;-71
2023/05/29 04:25:19;;;;;;;0.60;0.60;;;;;;;23.66;100.00;99990.91;5057725;28;20597;-73
2023/05/29 04:27:50;;;;;;;0.60;0.60;;;;;;;23.96;100.00;100019.72;5058712;28;20731;-71
2023/05/29 04:30:17;;;;;;;0.50;0.50;;;;;;;24.29;100.00;100066.09;5058593;28;20198;-71
2023/05/29 04:32:44;;;;;;;0.65;0.65;;;;;;;24.51;100.00;100068.66;5049612;28;20211;-75
2023/05/29 04:35:11;;;;;;;0.60;0.60;;;;;;;24.37;100.00;100068.38;5044238;28;20209;-75
2023/05/29 04:37:39;;;;;;;0.60;0.60;;;;;;;23.88;100.00;100065.06;5047921;28;20587;-74
2023/05/29 04:40:08;;;;;;;0.77;0.77;;;;;;;23.35;100.00;100061.81;5048822;28;20245;-74
2023/05/29 04:42:36;;;;;;;0.70;0.70;;;;;;;23.02;100.00;100029.50;5025157;28;20281;-72
2023/05/29 04:45:05;;;;;;;0.70;0.70;;;;;;;22.63;100.00;100044.13;5050922;28;20227;-72
2023/05/29 04:47:32;;;;;;;0.60;0.60;;;;;;;22.05;100.00;100003.81;5062182;28;20249;-73
2023/05/29 04:50:00;;;;;;;0.60;0.60;;;;;;;21.70;100.00;99938.06;5025340;28;20203;-73
2023/05/29 04:52:27;;;;;;;0.60;0.60;;;;;;;22.55;100.00;100049.66;5057901;28;20687;-75
2023/05/29 04:54:56;;;;;;;0.50;0.50;;;;;;;22.81;100.00;100051.44;5060207;28;20254;-72
2023/05/29 04:57:23;;;;;;;0.50;0.50;;;;;;;22.75;100.00;100040.22;5062038;28;20207;-73
2023/05/29 04:59:50;;;;;;;0.50;0.50;;;;;;;22.99;100.00;100034.91;5056188;28;20620;-72
2023/05/29 05:02:16;;;;;;;0.60;0.60;;;;;;;23.33;100.00;100065.44;5056350;28;20225;-72
2023/05/29 05:04:45;;;;;;;0.70;0.70;;;;;;;23.51;100.00;100067.38;5055870;28;20220;-72
2023/05/29 05:07:12;;;;;;;0.60;0.60;;;;;;;23.18;100.00;100057.16;5052554;28;20235;-72
2023/05/29 05:09:39;;;;;;;0.60;0.60;;;;;;;23.04;100.00;100067.38;5058082;28;20756;-71
2023/05/29 05:12:08;;;;;;;0.80;0.80;;;;;;;23.27;100.00;100066.50;5061303;28;20211;-72
2023/05/29 05:14:35;;;;;;;0.60;0.60;;;;;;;23.23;100.00;100063.09;5057471;28;20190;-73
2023/05/29 05:17:02;;;;;;;1.60;1.08;;;;;;;22.68;100.00;100018.44;5058847;28;20199;-73
2023/05/29 05:19:28;;;;;;;0.80;0.80;;;;;;;22.58;100.00;100009.91;5055961;28;20207;-74
2023/05/29 05:21:55;;;;;;;0.60;0.60;;;;;;;23.56;100.00;100070.75;5054492;28;20212;-73
2023/05/29 05:24:22;;;;;;;0.60;0.60;;;;;;;24.31;100.00;100079.25;5061213;28;20718;-73
2023/05/29 05:26:49;;;;;;;0.70;0.70;;;;;;;24.49;100.00;100078.50;5065507;28;20206;-72
2023/05/29 05:29:18;;;;;;;0.50;0.50;;;;;;;23.66;100.00;99911.47;5065905;28;20202;-73
2023/05/29 05:31:46;;;;;;;0.70;0.70;;;;;;;25.00;100.00;100092.22;5027681;28;20254;-73
2023/05/29 05:34:13;;;;;;;0.63;0.63;;;;;;;24.64;100.00;100083.16;5027261;28;20835;-75
2023/05/29 05:36:40;;;;;;;0.60;0.60;;;;;;;24.49;100.00;100075.84;5060089;28;20206;-71
2023/05/29 05:39:06;;;;;;;0.52;0.52;;;;;;;24.90;100.00;100059.03;5064694;28;20280;-72
2023/05/29 05:41:33;;;;;;;2.13;1.00;;;;;;;25.47;100.00;100079.44;5059855;28;20199;-73
2023/05/29 05:44:00;;;;;;;0.70;0.70;;;;;;;24.53;98.86;99916.56;5059841;28;20228;-73
2023/05/29 05:46:28;;;;;;;0.60;0.60;;;;;;;24.99;100.00;100045.38;5063616;28;20222;-73
2023/05/29 05:48:56;;;;;;;0.52;0.52;;;;;;;24.85;100.00;100086.69;5066608;28;20206;-73
2023/05/29 05:51:23;;;;;;;0.68;0.68;;;;;;;24.68;100.00;100080.28;5074808;28;20649;-74
2023/05/29 05:53:50;;;;;;;0.50;0.50;;;;;;;24.09;100.00;99997.97;5053563;28;20218;-74
2023/05/29 05:56:17;;;;;;;0.60;0.60;;;;;;;23.79;100.00;100001.88;5061652;28;20222;-74
2023/05/29 05:58:44;;;;;;;0.60;0.60;;;;;;;23.66;100.00;100011.22;5029257;28;20218;-74
2023/05/29 06:01:10;;;;;;;0.60;0.60;;;;;;;23.55;100.00;100080.47;5050819;28;20206;-76
2023/05/29 06:03:38;;;;;;;0.60;0.60;;;;;;;22.94;100.00;99998.97;5030216;28;20662;-74
2023/05/29 06:06:07;;;;;;;0.60;0.60;;;;;;;22.90;100.00;100013.25;5053501;28;20273;-73
2023/05/29 06:08:34;;;;;;;0.70;0.70;;;;;;;22.87;100.00;100010.69;5019875;28;20223;-73
2023/05/29 06:11:00;;;;;;;0.60;0.60;;;;;;;23.37;100.00;100082.88;5057071;28;20256;-73
2023/05/29 06:13:27;;;;;;;0.70;0.70;;;;;;;23.20;100.00;100060.59;5056815;28;20199;-72
2023/05/29 06:15:54;;;;;;;0.60;0.60;;;;;;;23.25;100.00;100083.38;5053025;28;20211;-73
2023/05/29 06:18:21;;;;;;;0.50;0.50;;;;;;;22.51;100.00;99958.19;5054521;28;20238;-73
2023/05/29 06:20:50;;;;;;;0.60;0.60;;;;;;;23.42;100.00;100070.41;5018060;28;20655;-70
2023/05/29 06:23:17;;;;;;;0.60;0.60;;;;;;;23.32;100.00;100059.28;5045910;28;20195;-76
2023/05/29 06:25:44;;;;;;;0.60;0.60;;;;;;;23.84;100.00;100081.97;5052897;28;20618;-74
2023/05/29 06:28:10;;;;;;;0.80;0.80;;;;;;;23.85;100.00;100086.38;5052576;28;20211;-76
2023/05/29 06:30:37;;;;;;;0.50;0.50;;;;;;;23.11;100.00;100090.03;5019873;28;20208;-76
2023/05/29 06:33:04;;;;;;;0.70;0.70;;;;;;;23.43;100.00;100093.31;4998961;28;20204;-75
2023/05/29 06:35:31;;;;;;;0.70;0.70;;;;;;;23.28;100.00;100059.44;5045505;28;20276;-76
2023/05/29 06:37:59;;;;;;;0.70;0.70;;;;;;;23.27;100.00;100076.22;5057565;28;20195;-75
2023/05/29 06:40:26;;;;;;;0.60;0.60;;;;;;;23.21;100.00;100087.91;5063682;28;20228;-77
2023/05/29 06:42:52;;;;;;;0.82;0.82;;;;;;;23.28;100.00;100099.13;5062805;28;20257;-75
2023/05/29 06:45:19;;;;;;;0.60;0.60;;;;;;;23.04;100.00;100080.59;5055975;28;20226;-75
2023/05/29 06:47:46;;;;;;;0.68;0.68;;;;;;;23.09;100.00;100102.44;5052298;28;20207;-75
2023/05/29 06:50:13;;;;;;;0.75;0.75;;;;;;;23.11;100.00;100083.88;5036480;28;20200;-78
2023/05/29 06:52:40;;;;;;;0.60;0.60;;;;;;;23.27;100.00;100086.81;5041634;28;20207;-75
2023/05/29 06:55:09;;;;;;;0.70;0.70;;;;;;;23.47;100.00;100092.28;5040775;28;20202;-75
2023/05/29 06:57:36;;;;;;;0.50;0.50;;;;;;;23.78;100.00;100095.47;5049779;28;20204;-77
2023/05/29 07:00:03;;;;;;;0.70;0.70;;;;;;;24.06;100.00;100096.13;5050288;28;20214;-70
2023/05/29 07:02:30;;;;;;;0.60;0.60;;;;;;;24.52;100.00;100097.78;5015956;28;20234;-71
2023/05/29 07:04:57;;;;;;;0.60;0.60;;;;;;;25.17;96.12;100097.63;5051741;28;20223;-69
2023/05/29 07:07:23;;;;;;;1.52;1.42;;;;;;;25.64;91.52;100097.31;5045167;28;20204;-69
2023/05/29 07:09:50;;;;;;;0.60;0.60;;;;;;;25.93;89.88;100094.13;5061146;28;20669;-70
2023/05/29 07:12:18;;;;;;;0.70;0.70;;;;;;;26.01;86.75;100099.94;5048861;28;20195;-69
2023/05/29 07:14:47;;;;;;;0.60;0.60;;;;;;;25.84;86.84;100086.59;5050386;28;20261;-70
2023/05/29 07:17:14;;;;;;;0.60;0.60;;;;;;;25.88;86.36;100096.16;5054116;28;20249;-70
2023/05/29 07:19:41;;;;;;;0.60;0.60;;;;;;;25.75;87.82;100102.97;5056144;28;20213;-70
2023/05/29 07:22:08;;;;;;;0.60;0.60;;;;;;;26.24;86.81;100100.66;5052148;28;20204;-70
2023/05/29 07:24:35;;;;;;;0.65;0.65;;;;;;;26.12;85.33;100102.06;5046261;28;20227;-70
2023/05/29 07:27:02;;;;;;;0.60;0.60;;;;;;;26.14;87.12;100095.75;5058345;28;20234;-70
2023/05/29 07:29:30;;;;;;;0.70;0.70;;;;;;;25.52;89.19;100105.81;5052102;28;20925;-69
2023/05/29 07:31:57;;;;;;;0.60;0.60;;;;;;;24.78;95.14;100086.06;5015629;28;20203;-70
2023/05/29 07:34:23;;;;;;;0.60;0.60;;;;;;;25.05;97.08;100100.81;5050682;28;20218;-70
2023/05/29 07:37:02;;;;;;;0.80;0.80;;;;;;;25.47;99.26;100102.50;5012596;28;20203;-72
2023/05/29 07:39:29;;;;;;;0.70;0.70;;;;;;;25.07;98.47;100104.28;5047503;28;21277;-71
2023/05/29 07:41:56;;;;;;;0.60;0.60;;;;;;;25.37;97.97;100106.47;5049357;28;20686;-72
2023/05/29 07:44:23;;;;;;;0.60;0.60;;;;;;;25.47;96.07;100107.81;5038124;28;20204;-73
2023/05/29 07:46:51;;;;;;;0.60;0.60;;;;;;;25.12;95.79;100102.28;5047260;28;20265;-72
2023/05/29 07:49:18;;;;;;;0.60;0.60;;;;;;;25.00;95.84;100108.13;5058133;28;20580;-73
2023/05/29 07:51:44;;;;;;;0.60;0.60;;;;;;;24.38;100.00;100083.38;5058334;28;20203;-72
2023/05/29 07:54:11;;;;;;;0.60;0.60;;;;;;;24.18;100.00;100090.38;5055402;28;20211;-71
2023/05/29 07:56:40;;;;;;;0.70;0.70;;;;;;;24.22;100.00;100100.84;5043078;28;20634;-70
2023/05/29 07:59:08;;;;;;;0.60;0.60;;;;;;;24.26;100.00;100099.78;5052442;28;20257;-68
2023/05/29 08:01:35;;;;;;;0.60;0.60;;;;;;;24.30;100.00;100110.19;5014264;28;20674;-70
2023/05/29 08:04:03;;;;;;;0.65;0.65;;;;;;;24.49;100.00;100115.59;5054515;28;20245;-71
2023/05/29 08:06:32;;;;;;;0.60;0.60;;;;;;;24.16;100.00;100108.09;5049823;28;20231;-71
2023/05/29 08:08:59;;;;;;;1.00;1.00;;;;;;;23.78;100.00;100106.06;5059212;28;20191;-71
2023/05/29 08:11:26;;;;;;;0.70;0.70;;;;;;;24.05;100.00;100094.38;5053653;28;20195;-80
2023/05/29 08:13:53;;;;;;;0.60;0.60;;;;;;;24.24;100.00;100088.38;5049977;28;20211;-84
2023/05/29 08:16:19;;;;;;;0.60;0.60;;;;;;;24.17;100.00;100109.84;5050080;28;20211;-77
2023/05/29 08:18:46;;;;;;;0.70;0.70;;;;;;;24.08;100.00;100088.97;5043752;28;20199;-82
2023/05/29 08:21:15;;;;;;;1.42;1.33;;;;;;;24.57;100.00;100102.91;5043472;28;20405;-73
2023/05/29 08:23:41;;;;;;;0.60;0.60;;;;;;;24.92;98.34;100102.28;5048513;28;20728;-72
2023/05/29 08:26:08;;;;;;;0.60;0.60;;;;;;;25.12;95.01;100107.56;5047421;28;20235;-73
2023/05/29 08:28:35;;;;;;;0.50;0.50;;;;;;;24.73;100.00;100109.25;5030877;28;20270;-73
2023/05/29 08:31:02;;;;;;;0.80;0.80;;;;;;;25.38;99.44;100108.22;5050879;28;20203;-73
2023/05/29 08:33:29;;;;;;;0.60;0.60;;;;;;;25.40;96.27;100082.47;5048695;28;20576;-73
2023/05/29 08:35:56;;;;;;;0.90;0.90;;;;;;;25.63;97.59;100107.06;5027319;28;20191;-73
2023/05/29 08:38:25;;;;;;;0.70;0.70;;;;;;;24.93;95.10;100106.69;5037640;28;20204;-71
2023/05/29 08:40:52;;;;;;;0.70;0.70;;;;;;;24.19;100.00;100101.81;5030825;28;20222;-68
2023/05/29 08:43:22;;;;;;;0.60;0.60;;;;;;;24.55;100.00;100083.53;5052252;28;20206;-68
2023/05/29 08:45:53;;;;;;;0.50;0.50;;;;;;;24.58;100.00;100104.59;5032092;28;20228;-68
2023/05/29 08:48:23;;;;;;;0.70;0.70;;;;;;;24.47;100.00;100093.63;5037612;28;20204;-70
2023/05/29 08:50:53;;;;;;;0.50;0.50;;;;;;;24.66;100.00;100087.47;5038061;28;20265;-69
2023/05/29 08:53:20;;;;;;;0.88;0.88;;;;;;;24.60;100.00;100087.72;5044927;28;20279;-70
2023/05/29 08:55:51;;;;;;;0.70;0.70;;;;;;;24.48;100.00;100098.84;5048120;28;20200;-71
2023/05/29 08:58:18;;;;;;;0.70;0.70;;;;;;;24.18;100.00;100100.97;5041172;28;20219;-71
2023/05/29 09:00:46;;;;;;;0.68;0.68;;;;;;;24.49;100.00;100095.25;5045806;28;20203;-72
2023/05/29 09:03:14;;;;;;;0.70;0.70;;;;;;;24.54;100.00;100081.81;5052394;28;20549;-72
2023/05/29 09:05:41;;;;;;;0.50;0.50;;;;;;;24.97;95.39;100097.63;5053807;28;20254;-70
2023/05/29 09:08:09;;;;;;;0.88;0.88;;;;;;;25.34;93.92;100099.53;5051782;28;20693;-71
2023/05/29 09:10:36;;;;;;;0.77;0.77;;;;;;;25.07;91.05;100092.81;5053750;28;20207;-72
2023/05/29 09:13:04;;;;;;;0.60;0.60;;;;;;;24.66;92.89;100091.88;5052452;28;20206;-72
2023/05/29 09:15:32;;;;;;;0.70;0.70;;;;;;;24.60;93.24;100078.91;5054597;28;20203;-72
2023/05/29 09:17:59;;;;;;;0.60;0.60;;;;;;;24.50;95.48;100085.53;5055145;28;20199;-72
2023/05/29 09:20:27;;;;;;;0.60;0.60;;;;;;;24.27;95.30;100061.75;5053319;28;20319;-72
2023/05/29 09:22:55;;;;;;;0.65;0.65;;;;;;;24.66;94.86;100074.19;5039195;28;20191;-73
2023/05/29 09:25:23;;;;;;;0.50;0.50;;;;;;;24.56;94.42;100053.44;5044248;28;20282;-73
2023/05/29 09:27:53;;;;;;;0.70;0.70;;;;;;;24.98;91.73;100077.28;5041940;28;20212;-70
2023/05/29 09:30:37;;;;;;;1.00;1.00;;;;;;;25.27;93.99;100070.66;5047920;28;20242;-72
2023/05/29 09:33:05;;;;;;;0.75;0.75;;;;;;;24.45;94.95;100050.38;5047742;28;20289;-71
2023/05/29 09:35:37;;;;;;;0.60;0.60;;;;;;;25.24;96.21;100068.16;5049923;28;20238;-70
2023/05/29 09:38:04;;;;;;;0.50;0.50;;;;;;;25.48;90.47;100064.38;5047183;28;20206;-71
2023/05/29 09:40:32;;;;;;;0.70;0.70;;;;;;;25.57;88.56;100064.00;5048916;28;20246;-71
2023/05/29 09:43:07;;;;;;;0.60;0.60;;;;;;;26.22;86.30;100067.97;5051909;28;20342;-70
2023/05/29 09:45:39;;;;;;;0.70;0.70;;;;;;;25.77;87.55;100055.06;5046659;28;20310;-69
2023/05/29 09:48:06;;;;;;;0.50;0.50;;;;;;;26.12;87.05;100064.84;5054084;28;20243;-71
2023/05/29 09:50:34;;;;;;;1.50;1.40;;;;;;;26.15;84.61;100060.25;5054131;28;20751;-71
2023/05/29 09:53:02;;;;;;;0.98;0.98;;;;;;;25.77;85.48;100047.97;5053680;28;20207;-72
2023/05/29 09:55:31;;;;;;;0.70;0.70;;;;;;;25.66;83.86;100055.56;5050374;28;20257;-71
2023/05/29 09:57:59;;;;;;;0.60;0.60;;;;;;;25.09;91.04;100054.66;5053026;28;20199;-69
2023/05/29 10:00:26;;;;;;;2.00;1.15;;;;;;;24.94;89.31;100050.00;5048607;28;20215;-71
2023/05/29 10:02:55;;;;;;;0.60;0.60;;;;;;;25.41;88.54;100045.22;5051850;28;20200;-70
2023/05/29 10:05:22;;;;;;;0.60;0.60;;;;;;;25.08;87.03;100052.91;5047992;28;20247;-71
2023/05/29 10:07:53;;;;;;;0.90;0.90;;;;;;;24.85;91.36;100045.13;5048982;28;20651;-71
2023/05/29 10:10:20;;;;;;;1.05;1.00;;;;;;;24.62;100.00;100037.25;5043238;28;20199;-73
2023/05/29 10:12:49;;;;;;;0.60;0.60;;;;;;;24.48;98.80;100035.19;5048616;28;20584;-70
2023/05/29 10:15:18;;;;;;;0.60;0.60;;;;;;;24.82;94.38;100023.16;5051369;28;20634;-71
2023/05/29 10:17:51;;;;;;;0.60;0.60;;;;;;;25.52;93.24;100005.78;5049443;28;20293;-71
2023/05/29 10:20:21;;;;;;;0.50;0.50;;;;;;;25.29;90.40;100036.97;5052287;28;20246;-71
2023/05/29 10:22:52;;;;;;;0.60;0.60;;;;;;;25.23;91.84;100005.38;5049284;28;20215;-72
2023/05/29 10:25:21;;;;;;;0.98;0.98;;;;;;;25.07;91.42;99961.00;5049632;28;21136;-72
2023/05/29 10:27:49;;;;;;;0.70;0.70;;;;;;;25.63;89.29;100023.84;5048937;28;20227;-71
2023/05/29 10:30:28;;;;;;;0.60;0.60;;;;;;;25.61;90.42;100004.50;5051853;28;20215;-71
2023/05/29 10:33:14;;;;;;;0.50;0.50;;;;;;;25.64;87.93;100015.84;5022100;28;20642;-71
2023/05/29 10:35:47;;;;;;;0.70;0.70;;;;;;;25.99;88.82;100015.91;5053830;28;20195;-72
2023/05/29 10:38:18;;;;;;;0.60;0.60;;;;;;;26.26;86.93;99979.13;5018329;28;20203;-71
2023/05/29 10:40:45;;;;;;;0.60;0.60;;;;;;;26.14;87.47;100018.69;5017301;28;20219;-72
2023/05/29 10:43:31;;;;;;;0.60;0.60;;;;;;;25.46;85.31;100000.72;5052775;28;20207;-72
2023/05/29 10:45:58;;;;;;;0.60;0.60;;;;;;;25.99;86.31;100013.25;5046068;28;20754;-76
2023/05/29 10:48:42;;;;;;;0.70;0.70;;;;;;;25.29;86.70;99978.56;5033206;28;20204;-75
2023/05/29 10:51:26;;;;;;;0.60;0.60;;;;;;;25.08;87.67;99983.91;5033213;28;20270;-72
2023/05/29 10:53:52;;;;;;;0.60;0.60;;;;;;;25.26;85.83;99986.66;5032947;28;20741;-70
2023/05/29 10:56:23;;;;;;;0.60;0.60;;;;;;;25.41;87.40;100001.88;5032972;28;20204;-71
2023/05/29 10:58:55;;;;;;;0.68;0.68;;;;;;;25.47;88.83;100001.59;5032635;28;20295;-71
2023/05/29 11:01:24;;;;;;;0.50;0.50;;;;;;;25.72;87.04;99991.53;5032674;28;20200;-72
2023/05/29 11:03:52;;;;;;;0.50;0.50;;;;;;;25.76;85.95;99977.16;4998624;28;20203;-71
2023/05/29 11:06:23;;;;;;;0.60;0.60;;;;;;;25.29;88.90;99992.69;4997821;28;20316;-72
2023/05/29 11:08:55;;;;;;;0.60;0.60;;;;;;;25.45;89.58;99992.81;5013897;28;20266;-71
2023/05/29 11:11:32;;;;;;;0.70;0.70;;;;;;;26.00;89.76;99975.97;5032359;28;20270;-72
2023/05/29 11:14:04;;;;;;;0.60;0.60;;;;;;;26.62;86.09;99987.88;5032610;28;20249;-71
2023/05/29 11:16:38;;;;;;;0.60;0.60;;;;;;;27.45;81.72;99977.22;5032357;28;20680;-71
2023/05/29 11:19:06;;;;;;;0.60;0.60;;;;;;;27.38;77.69;99982.00;5032332;28;20536;-71
2023/05/29 11:21:42;;;;;;;0.60;0.60;;;;;;;27.07;80.18;99974.84;5041422;28;20198;-71
2023/05/29 11:24:14;;;;;;;0.60;0.60;;;;;;;26.66;83.97;99975.28;5052273;28;20622;-72
2023/05/29 11:26:41;;;;;;;0.60;0.60;;;;;;;27.35;82.66;99971.50;5051731;28;20219;-71